createdAt,value
2023-01-20T00:00:22.768Z,100342.91
2023-01-20T00:02:51.120Z,100343.75
2023-01-20T00:05:19.539Z,100340.19
2023-01-20T00:07:48.024Z,100345.38
2023-01-20T00:10:17.184Z,100344.88
2023-01-20T00:12:45.005Z,100351.69
2023-01-20T00:15:13.858Z,100349.78
2023-01-20T00:17:41.795Z,100356.03
2023-01-20T00:20:11.921Z,100359.09
2023-01-20T00:22:42.452Z,100358.56
2023-01-20T00:25:11.248Z,100361.03
2023-01-20T00:27:38.668Z,100360.25
2023-01-20T00:30:08.665Z,100358.59
2023-01-20T00:32:44.985Z,100365.16
2023-01-20T00:35:15.637Z,100372.78
2023-01-20T00:37:45.956Z,100371.13
2023-01-20T00:40:17.469Z,100379.03
2023-01-20T00:42:47.700Z,100369.34
2023-01-20T00:45:16.024Z,100377.56
2023-01-20T00:47:44.300Z,100383.38
2023-01-20T00:50:14.487Z,100373.78
2023-01-20T00:52:42.892Z,100379.78
2023-01-20T00:55:11.510Z,100379.78
2023-01-20T00:57:39.597Z,100380.84
2023-01-20T01:00:09.348Z,100382.53
2023-01-20T01:02:40.202Z,100384.69
2023-01-20T01:05:08.593Z,100386.94
2023-01-20T01:07:36.353Z,100389.69
2023-01-20T01:10:05.546Z,100392.66
2023-01-20T01:12:33.312Z,100397.59
2023-01-20T01:15:02.040Z,100408.69
2023-01-20T01:17:30.047Z,100406.25
2023-01-20T01:19:58.496Z,100404.28
2023-01-20T01:22:27.190Z,100417.41
2023-01-20T01:24:55.345Z,100410.53
2023-01-20T01:27:23.820Z,100413.56
2023-01-20T01:29:52.157Z,100412.19
2023-01-20T01:32:20.696Z,100415.72
2023-01-20T01:34:49.088Z,100419.50
2023-01-20T01:37:17.381Z,100419.56
2023-01-20T01:39:45.921Z,100417.34
2023-01-20T01:42:25.440Z,100420.03
2023-01-20T01:45:10.953Z,100423.56
2023-01-20T01:48:07.100Z,100429.41
2023-01-20T01:50:58.477Z,100432.22
2023-01-20T01:53:41.505Z,100432.78
2023-01-20T01:56:14.002Z,100441.25
2023-01-20T01:58:53.710Z,100443.78
2023-01-20T02:01:25.970Z,100444.25
2023-01-20T02:04:14.777Z,100452.44
2023-01-20T02:06:59.111Z,100453.00
2023-01-20T02:09:30.338Z,100455.63
2023-01-20T02:12:14.611Z,100460.53
2023-01-20T02:14:53.899Z,100458.34
2023-01-20T02:17:59.344Z,100457.78
2023-01-20T02:20:54.938Z,100469.38
2023-01-20T02:24:19.051Z,100476.19
2023-01-20T02:27:23.977Z,100479.13
2023-01-20T02:30:36.553Z,100482.97
2023-01-20T02:33:25.920Z,100485.94
2023-01-20T02:36:28.018Z,100490.81
2023-01-20T02:39:36.572Z,100498.16
2023-01-20T02:42:27.513Z,100508.72
2023-01-20T02:45:16.948Z,100509.56
2023-01-20T02:48:27.654Z,100513.81
2023-01-20T02:51:16.855Z,100506.53
2023-01-20T02:54:03.937Z,100510.31
2023-01-20T02:56:38.578Z,100513.91
2023-01-20T02:59:23.736Z,100512.81
2023-01-20T03:02:23.267Z,100522.66
2023-01-20T03:05:13.157Z,100519.06
2023-01-20T03:07:50.093Z,100522.13
2023-01-20T03:10:27.722Z,100518.81
2023-01-20T03:13:15.539Z,100523.66
2023-01-20T03:16:08.711Z,100520.09
2023-01-20T03:18:40.478Z,100530.91
2023-01-20T03:21:12.143Z,100530.53
2023-01-20T03:23:53.218Z,100525.88
2023-01-20T03:26:24.145Z,100524.25
2023-01-20T03:28:54.808Z,100535.41
2023-01-20T03:31:35.546Z,100536.53
2023-01-20T03:34:14.791Z,100537.03
2023-01-20T03:36:47.814Z,100544.06
2023-01-20T03:39:17.139Z,100548.44
2023-01-20T03:42:30.095Z,100547.00
2023-01-20T03:45:36.906Z,100553.88
2023-01-20T03:48:37.616Z,100562.66
2023-01-20T03:51:31.409Z,100553.88
2023-01-20T03:54:18.663Z,100567.44
2023-01-20T03:57:19.672Z,100569.41
2023-01-20T03:59:54.217Z,100563.69
2023-01-20T04:02:28.876Z,100572.69
2023-01-20T04:05:05.263Z,100574.56
2023-01-20T04:07:37.542Z,100576.97
2023-01-20T04:10:17.329Z,100580.19
2023-01-20T04:12:47.473Z,100579.38
2023-01-20T04:15:22.299Z,100580.47
2023-01-20T04:17:52.367Z,100582.34
2023-01-20T04:20:24.582Z,100581.53
2023-01-20T04:22:59.518Z,100589.47
2023-01-20T04:25:33.574Z,100593.53
2023-01-20T04:28:01.715Z,100591.09
2023-01-20T04:30:31.507Z,100592.44
2023-01-20T04:32:59.956Z,100593.56
2023-01-20T04:35:28.394Z,100592.44
2023-01-20T04:37:56.911Z,100589.69
2023-01-20T04:40:25.329Z,100595.97
2023-01-20T04:42:53.763Z,100601.56
2023-01-20T04:45:22.119Z,100603.34
2023-01-20T04:47:50.852Z,100605.69
2023-01-20T04:50:19.238Z,100612.28
2023-01-20T04:52:48.309Z,100613.81
2023-01-20T04:55:16.315Z,100618.69
2023-01-20T04:57:44.279Z,100616.22
2023-01-20T05:00:18.651Z,100622.19
2023-01-20T05:02:48.743Z,100616.97
2023-01-20T05:05:18.829Z,100634.66
2023-01-20T05:07:53.916Z,100633.50
2023-01-20T05:10:23.596Z,100637.31
2023-01-20T05:12:53.342Z,100638.25
2023-01-20T05:15:23.105Z,100644.28
2023-01-20T05:17:52.987Z,100642.06
2023-01-20T05:20:22.728Z,100644.16
2023-01-20T05:22:52.544Z,100646.00
2023-01-20T05:25:22.359Z,100656.31
2023-01-20T05:27:52.186Z,100668.66
2023-01-20T05:30:22.171Z,100667.78
2023-01-20T05:32:52.661Z,100668.66
2023-01-20T05:35:22.744Z,100672.97
2023-01-20T05:37:55.975Z,100683.81
2023-01-20T05:40:23.927Z,100686.88
2023-01-20T05:42:52.344Z,100683.75
2023-01-20T05:45:20.636Z,100691.81
2023-01-20T05:47:54.907Z,100693.97
2023-01-20T05:50:27.340Z,100699.19
2023-01-20T05:52:56.493Z,100690.50
2023-01-20T05:55:26.760Z,100699.00
2023-01-20T05:57:56.472Z,100702.31
2023-01-20T06:00:26.635Z,100701.38
2023-01-20T06:02:56.712Z,100705.03
2023-01-20T06:05:27.917Z,100718.09
2023-01-20T06:07:58.801Z,100720.00
2023-01-20T06:10:28.635Z,100722.97
2023-01-20T06:12:58.709Z,100728.75
2023-01-20T06:15:29.656Z,100731.38
2023-01-20T06:17:59.757Z,100740.28
2023-01-20T06:20:30.242Z,100746.81
2023-01-20T06:22:59.345Z,100752.28
2023-01-20T06:25:29.118Z,100753.66
2023-01-20T06:28:00.749Z,100751.94
2023-01-20T06:30:30.657Z,100755.41
2023-01-20T06:33:00.682Z,100761.75
2023-01-20T06:35:30.960Z,100766.88
2023-01-20T06:38:00.795Z,100767.09
2023-01-20T06:40:30.578Z,100784.84
2023-01-20T06:43:00.421Z,100787.25
2023-01-20T06:45:30.280Z,100794.25
2023-01-20T06:48:00.050Z,100796.13
2023-01-20T06:50:29.893Z,100798.03
2023-01-20T06:52:59.698Z,100807.72
2023-01-20T06:55:29.579Z,100812.97
2023-01-20T06:57:59.556Z,100807.19
2023-01-20T07:00:29.509Z,100819.16
2023-01-20T07:02:59.244Z,100821.97
2023-01-20T07:05:29.158Z,100825.06
2023-01-20T07:07:57.516Z,100831.59
2023-01-20T07:10:25.989Z,100828.88
2023-01-20T07:12:54.412Z,100836.31
2023-01-20T07:15:23.262Z,100838.88
2023-01-20T07:17:51.745Z,100846.59
2023-01-20T07:20:20.377Z,100857.41
2023-01-20T07:22:48.646Z,100849.88
2023-01-20T07:25:17.404Z,100856.88
2023-01-20T07:27:45.551Z,100860.66
2023-01-20T07:30:14.271Z,100865.88
2023-01-20T07:32:42.465Z,100870.16
2023-01-20T07:35:10.975Z,100868.59
2023-01-20T07:37:39.265Z,100876.41
2023-01-20T07:40:09.701Z,100876.53
2023-01-20T07:42:40.528Z,100873.94
2023-01-20T07:45:08.725Z,100869.56
2023-01-20T07:47:35.994Z,100871.56
2023-01-20T07:50:05.260Z,100875.41
2023-01-20T07:52:32.945Z,100878.03
2023-01-20T07:55:01.392Z,100875.22
2023-01-20T07:57:33.616Z,100881.13
2023-01-20T08:00:01.806Z,100890.63
2023-01-20T08:02:30.269Z,100893.34
2023-01-20T08:04:58.641Z,100892.03
2023-01-20T08:07:27.244Z,100907.09
2023-01-20T08:09:55.621Z,100898.06
2023-01-20T08:12:24.678Z,100906.13
2023-01-20T08:14:52.497Z,100904.16
2023-01-20T08:17:21.050Z,100903.56
2023-01-20T08:19:49.351Z,100906.16
2023-01-20T08:22:17.826Z,100905.16
2023-01-20T08:24:46.161Z,100907.81
2023-01-20T08:27:14.685Z,100915.69
2023-01-20T08:29:43.392Z,100916.53
2023-01-20T08:32:11.632Z,100920.31
2023-01-20T08:34:40.062Z,100919.97
2023-01-20T08:37:08.576Z,100929.22
2023-01-20T08:39:36.902Z,100924.59
2023-01-20T08:42:08.557Z,100926.09
2023-01-20T08:44:39.218Z,100936.06
2023-01-20T08:47:09.485Z,100937.31
2023-01-20T08:49:39.611Z,100934.59
2023-01-20T08:52:12.029Z,100935.66
2023-01-20T08:54:42.288Z,100947.59
2023-01-20T08:57:12.620Z,100942.72
2023-01-20T08:59:42.727Z,100953.72
2023-01-20T09:02:13.780Z,100950.75
2023-01-20T09:04:44.618Z,100947.78
2023-01-20T09:07:14.648Z,100958.13
2023-01-20T09:09:44.821Z,100960.34
2023-01-20T09:12:18.869Z,100971.94
2023-01-20T09:14:48.957Z,100974.75
2023-01-20T09:17:19.349Z,100985.25
2023-01-20T09:19:49.412Z,100983.03
2023-01-20T09:22:19.458Z,100989.38
2023-01-20T09:24:49.512Z,100990.78
2023-01-20T09:27:19.598Z,101000.63
2023-01-20T09:29:49.666Z,100999.81
2023-01-20T09:32:19.736Z,101005.28
2023-01-20T09:34:49.814Z,101001.06
2023-01-20T09:37:38.448Z,101011.50
2023-01-20T09:40:51.797Z,101015.50
2023-01-20T09:44:01.076Z,101015.13
2023-01-20T09:47:19.851Z,101021.97
2023-01-20T09:51:05.907Z,101028.13
2023-01-20T09:54:33.548Z,101027.59
2023-01-20T09:57:13.332Z,101026.72
2023-01-20T10:00:14.497Z,101025.81
2023-01-20T10:03:01.094Z,101032.75
2023-01-20T10:05:40.286Z,101038.72
2023-01-20T10:08:59.802Z,101036.91
2023-01-20T10:11:46.279Z,101042.00
2023-01-20T10:14:41.453Z,101047.28
2023-01-20T10:17:37.254Z,101050.38
2023-01-20T10:20:27.996Z,101054.41
2023-01-20T10:23:21.608Z,101048.22
2023-01-20T10:26:25.855Z,101044.97
2023-01-20T10:29:04.098Z,101049.78
2023-01-20T10:31:50.191Z,101044.91
2023-01-20T10:34:22.611Z,101048.63
2023-01-20T10:37:10.631Z,101043.91
2023-01-20T10:40:01.811Z,101048.22
2023-01-20T10:42:34.451Z,101049.72
2023-01-20T10:45:21.516Z,101050.94
2023-01-20T10:48:38.789Z,101055.25
2023-01-20T10:51:50.553Z,101056.41
2023-01-20T10:54:45.863Z,101062.13
2023-01-20T10:57:16.572Z,101066.34
2023-01-20T10:59:58.776Z,101062.28
2023-01-20T11:02:38.069Z,101055.00
2023-01-20T11:05:27.634Z,101059.97
2023-01-20T11:08:03.714Z,101066.34
2023-01-20T11:10:33.985Z,101060.88
2023-01-20T11:13:04.876Z,101065.09
2023-01-20T11:15:46.562Z,101068.97
2023-01-20T11:18:16.524Z,101059.38
2023-01-20T11:21:12.410Z,101059.59
2023-01-20T11:23:52.361Z,101063.25
2023-01-20T11:26:35.949Z,101062.09
2023-01-20T11:29:10.348Z,101065.66
2023-01-20T11:31:48.144Z,101062.34
2023-01-20T11:34:36.306Z,101076.09
2023-01-20T11:37:06.440Z,101067.97
2023-01-20T11:39:49.983Z,101073.41
2023-01-20T11:42:27.947Z,101074.97
2023-01-20T11:45:20.268Z,101067.78
2023-01-20T11:48:17.512Z,101073.84
2023-01-20T11:50:57.605Z,101082.91
2023-01-20T11:53:34.135Z,101078.47
2023-01-20T11:56:24.827Z,101079.06
2023-01-20T11:59:03.268Z,101081.50
2023-01-20T12:02:23.730Z,101087.00
2023-01-20T12:05:30.850Z,101084.34
2023-01-20T12:08:08.733Z,101090.22
2023-01-20T12:10:41.673Z,101093.34
2023-01-20T12:13:56.003Z,101097.25
2023-01-20T12:16:33.665Z,101103.19
2023-01-20T12:19:22.490Z,101095.34
2023-01-20T12:22:03.446Z,101105.44
2023-01-20T12:25:08.179Z,101112.94
2023-01-20T12:27:57.632Z,101124.56
2023-01-20T12:30:46.135Z,101121.53
2023-01-20T12:33:44.174Z,101120.78
2023-01-20T12:37:05.905Z,101125.75
2023-01-20T12:40:21.783Z,101139.34
2023-01-20T12:43:19.389Z,101135.84
2023-01-20T12:46:39.477Z,101152.66
2023-01-20T12:50:08.588Z,101152.06
2023-01-20T12:53:31.143Z,101162.09
2023-01-20T12:56:37.240Z,101157.13
2023-01-20T13:00:07.055Z,101166.13
2023-01-20T13:03:34.966Z,101164.72
2023-01-20T13:06:32.090Z,101171.59
2023-01-20T13:09:29.504Z,101178.16
2023-01-20T13:13:03.255Z,101175.09
2023-01-20T13:16:17.113Z,101178.31
2023-01-20T13:19:19.756Z,101176.59
2023-01-20T13:22:07.267Z,101173.69
2023-01-20T13:24:46.044Z,101181.47
2023-01-20T13:27:32.602Z,101171.88
2023-01-20T13:30:08.548Z,101184.03
2023-01-20T13:32:45.744Z,101187.41
2023-01-20T13:35:25.865Z,101182.63
2023-01-20T13:38:02.865Z,101191.25
2023-01-20T13:40:38.524Z,101200.66
2023-01-20T13:43:22.909Z,101199.28
2023-01-20T13:46:10.218Z,101206.06
2023-01-20T13:49:20.332Z,101207.88
2023-01-20T13:51:50.932Z,101200.25
2023-01-20T13:54:29.175Z,101209.88
2023-01-20T13:57:28.271Z,101205.38
2023-01-20T13:59:56.834Z,101205.91
2023-01-20T14:02:29.173Z,101214.84
2023-01-20T14:04:59.352Z,101215.47
2023-01-20T14:07:33.016Z,101211.09
2023-01-20T14:10:02.213Z,101211.34
2023-01-20T14:12:41.661Z,101220.31
2023-01-20T14:15:37.912Z,101216.47
2023-01-20T14:18:18.616Z,101221.03
2023-01-20T14:21:17.956Z,101224.22
2023-01-20T14:23:49.795Z,101234.19
2023-01-20T14:26:31.447Z,101240.72
2023-01-20T14:29:05.450Z,101238.31
2023-01-20T14:31:45.612Z,101241.41
2023-01-20T14:34:34.019Z,101249.81
2023-01-20T14:37:31.299Z,101259.13
2023-01-20T14:40:35.435Z,101259.94
2023-01-20T14:43:21.863Z,101263.16
2023-01-20T14:45:53.614Z,101267.53
2023-01-20T14:48:34.664Z,101269.44
2023-01-20T14:51:06.341Z,101264.16
2023-01-20T14:53:36.644Z,101271.75
2023-01-20T14:56:20.695Z,101274.72
2023-01-20T14:58:54.962Z,101284.31
2023-01-20T15:01:27.273Z,101278.38
2023-01-20T15:04:06.016Z,101276.41
2023-01-20T15:06:33.769Z,101283.41
2023-01-20T15:09:24.818Z,101289.13
2023-01-20T15:12:52.019Z,101298.88
2023-01-20T15:15:34.254Z,101301.81
2023-01-20T15:18:24.107Z,101306.69
2023-01-20T15:21:26.763Z,101305.28
2023-01-20T15:24:30.640Z,101302.47
2023-01-20T15:27:19.351Z,101308.16
2023-01-20T15:30:24.167Z,101324.09
2023-01-20T15:32:55.792Z,101320.78
2023-01-20T15:35:26.901Z,101329.09
2023-01-20T15:37:56.927Z,101330.66
2023-01-20T15:40:28.558Z,101330.19
2023-01-20T15:42:58.704Z,101340.63
2023-01-20T15:45:28.878Z,101343.50
2023-01-20T15:47:59.067Z,101352.03
2023-01-20T15:50:31.249Z,101357.59
2023-01-20T15:53:01.474Z,101362.09
2023-01-20T15:55:31.903Z,101363.84
2023-01-20T15:58:02.017Z,101368.38
2023-01-20T16:00:33.417Z,101372.25
2023-01-20T16:03:03.889Z,101374.25
2023-01-20T16:05:33.973Z,101378.97
2023-01-20T16:08:37.400Z,101387.25
2023-01-20T16:11:09.521Z,101392.56
2023-01-20T16:13:41.269Z,101397.88
2023-01-20T16:16:25.811Z,101398.78
2023-01-20T16:18:56.767Z,101397.84
2023-01-20T16:21:26.981Z,101397.69
2023-01-20T16:23:57.117Z,101400.50
2023-01-20T16:26:31.724Z,101397.47
2023-01-20T16:29:02.242Z,101396.97
2023-01-20T16:31:33.534Z,101412.94
2023-01-20T16:34:05.090Z,101410.44
2023-01-20T16:36:32.365Z,101410.06
2023-01-20T16:39:00.811Z,101414.28
2023-01-20T16:41:33.109Z,101423.97
2023-01-20T16:44:04.666Z,101425.25
2023-01-20T16:46:35.511Z,101434.72
2023-01-20T16:49:04.004Z,101440.75
2023-01-20T16:51:33.081Z,101438.78
2023-01-20T16:54:00.911Z,101441.97
2023-01-20T16:56:32.364Z,101450.59
2023-01-20T16:59:03.372Z,101444.53
2023-01-20T17:01:32.183Z,101457.53
2023-01-20T17:04:04.918Z,101465.09
2023-01-20T17:06:35.451Z,101460.72
2023-01-20T17:09:05.926Z,101468.06
2023-01-20T17:11:40.521Z,101470.16
2023-01-20T17:14:11.761Z,101473.94
2023-01-20T17:16:42.270Z,101479.84
2023-01-20T17:19:10.359Z,101471.06
2023-01-20T17:21:40.169Z,101476.50
2023-01-20T17:24:10.867Z,101480.88
2023-01-20T17:26:41.595Z,101487.41
2023-01-20T17:29:11.638Z,101490.72
2023-01-20T17:31:43.009Z,101495.91
2023-01-20T17:34:12.398Z,101490.03
2023-01-20T17:36:42.468Z,101494.41
2023-01-20T17:39:12.632Z,101498.81
2023-01-20T17:41:42.682Z,101504.28
2023-01-20T17:44:13.781Z,101502.16
2023-01-20T17:46:43.003Z,101510.94
2023-01-20T17:49:13.089Z,101514.25
2023-01-20T17:51:44.353Z,101512.75
2023-01-20T17:54:13.741Z,101524.25
2023-01-20T17:56:44.063Z,101512.06
2023-01-20T17:59:16.125Z,101526.69
2023-01-20T18:01:44.967Z,101532.50
2023-01-20T18:04:15.085Z,101524.50
2023-01-20T18:06:45.673Z,101529.25
2023-01-20T18:09:15.935Z,101538.66
2023-01-20T18:11:45.769Z,101532.53
2023-01-20T18:14:15.849Z,101546.28
2023-01-20T18:16:47.492Z,101540.63
2023-01-20T18:19:17.298Z,101546.44
2023-01-20T18:21:45.815Z,101550.59
2023-01-20T18:24:14.450Z,101550.38
2023-01-20T18:26:43.183Z,101558.91
2023-01-20T18:29:16.770Z,101557.88
2023-01-20T18:31:47.038Z,101557.66
2023-01-20T18:34:16.982Z,101561.00
2023-01-20T18:36:48.615Z,101568.31
2023-01-20T18:39:25.044Z,101567.03
2023-01-20T18:41:53.142Z,101570.97
2023-01-20T18:44:23.448Z,101569.09
2023-01-20T18:46:53.382Z,101572.41
2023-01-20T18:49:23.424Z,101572.63
2023-01-20T18:51:53.495Z,101572.41
2023-01-20T18:54:25.954Z,101579.50
2023-01-20T18:56:55.328Z,101583.66
2023-01-20T18:59:25.642Z,101589.13
2023-01-20T19:01:56.537Z,101585.56
2023-01-20T19:04:26.646Z,101593.53
2023-01-20T19:06:56.689Z,101591.84
2023-01-20T19:09:26.907Z,101588.91
2023-01-20T19:11:56.991Z,101595.44
2023-01-20T19:14:27.817Z,101597.47
2023-01-20T19:16:57.251Z,101602.09
2023-01-20T19:19:26.923Z,101603.31
2023-01-20T19:21:57.032Z,101600.19
2023-01-20T19:24:29.136Z,101603.34
2023-01-20T19:27:00.459Z,101605.25
2023-01-20T19:29:30.464Z,101618.66
2023-01-20T19:32:00.348Z,101628.13
2023-01-20T19:34:30.506Z,101626.91
2023-01-20T19:37:00.649Z,101628.56
2023-01-20T19:39:30.436Z,101639.25
2023-01-20T19:41:59.392Z,101641.75
2023-01-20T19:44:27.805Z,101643.47
2023-01-20T19:46:56.038Z,101642.41
2023-01-20T19:49:23.448Z,101649.75
2023-01-20T19:51:52.042Z,101647.50
2023-01-20T19:54:20.504Z,101653.38
2023-01-20T19:56:49.034Z,101652.78
2023-01-20T19:59:17.345Z,101655.19
2023-01-20T20:01:45.766Z,101665.41
2023-01-20T20:04:14.309Z,101663.38
2023-01-20T20:06:48.448Z,101674.09
2023-01-20T20:09:26.040Z,101668.84
2023-01-20T20:11:56.161Z,101666.75
2023-01-20T20:14:23.934Z,101670.97
2023-01-20T20:16:51.940Z,101672.88
2023-01-20T20:19:20.732Z,101675.19
2023-01-20T20:21:49.131Z,101675.59
2023-01-20T20:24:18.749Z,101674.75
2023-01-20T20:26:48.630Z,101673.25
2023-01-20T20:29:19.385Z,101682.72
2023-01-20T20:31:50.056Z,101684.56
2023-01-20T20:34:20.091Z,101682.94
2023-01-20T20:36:48.525Z,101684.44
2023-01-20T20:39:19.743Z,101690.50
2023-01-20T20:41:49.670Z,101695.47
2023-01-20T20:44:17.067Z,101688.19
2023-01-20T20:46:47.007Z,101698.50
2023-01-20T20:49:17.213Z,101705.44
2023-01-20T20:51:47.165Z,101705.41
2023-01-20T20:54:17.436Z,101702.28
2023-01-20T20:56:47.445Z,101711.28
2023-01-20T20:59:19.559Z,101715.88
2023-01-20T21:01:49.737Z,101714.84
2023-01-20T21:04:19.639Z,101720.88
2023-01-20T21:06:49.359Z,101723.59
2023-01-20T21:09:19.416Z,101721.47
2023-01-20T21:11:49.103Z,101729.91
2023-01-20T21:14:21.499Z,101723.03
2023-01-20T21:16:51.593Z,101727.66
2023-01-20T21:19:21.684Z,101730.59
2023-01-20T21:21:51.759Z,101733.09
2023-01-20T21:24:26.051Z,101733.09
2023-01-20T21:26:55.847Z,101742.41
2023-01-20T21:29:26.344Z,101737.72
2023-01-20T21:31:57.605Z,101745.22
2023-01-20T21:34:26.219Z,101743.13
2023-01-20T21:36:56.261Z,101746.06
2023-01-20T21:39:26.137Z,101751.34
2023-01-20T21:41:56.103Z,101757.81
2023-01-20T21:44:28.875Z,101762.50
2023-01-20T21:47:04.042Z,101771.13
2023-01-20T21:49:51.710Z,101777.81
2023-01-20T21:52:44.341Z,101778.84
2023-01-20T21:55:22.641Z,101779.09
2023-01-20T21:57:51.658Z,101781.66
2023-01-20T22:00:19.456Z,101779.78
2023-01-20T22:02:49.839Z,101784.63
2023-01-20T22:05:20.244Z,101782.94
2023-01-20T22:07:49.440Z,101786.69
2023-01-20T22:10:19.452Z,101788.78
2023-01-20T22:12:49.145Z,101786.50
2023-01-20T22:15:19.107Z,101788.59
2023-01-20T22:17:48.942Z,101794.69
2023-01-20T22:20:20.292Z,101797.41
2023-01-20T22:22:49.227Z,101804.69
2023-01-20T22:25:18.937Z,101800.72
2023-01-20T22:27:48.810Z,101805.31
2023-01-20T22:30:19.017Z,101823.34
2023-01-20T22:32:47.232Z,101814.97
2023-01-20T22:35:16.032Z,101819.38
2023-01-20T22:37:44.124Z,101818.97
2023-01-20T22:40:12.853Z,101821.06
2023-01-20T22:42:40.891Z,101819.00
2023-01-20T22:45:10.623Z,101829.84
2023-01-20T22:47:37.764Z,101834.25
2023-01-20T22:50:08.013Z,101825.47
2023-01-20T22:52:38.074Z,101837.59
2023-01-20T22:55:08.501Z,101842.66
2023-01-20T22:57:38.517Z,101839.97
2023-01-20T23:00:12.252Z,101852.53
2023-01-20T23:02:42.342Z,101844.78
2023-01-20T23:05:12.726Z,101853.13
2023-01-20T23:07:42.593Z,101849.59
2023-01-20T23:10:32.554Z,101845.00
2023-01-20T23:13:02.784Z,101847.91
2023-01-20T23:15:33.303Z,101853.16
2023-01-20T23:18:02.816Z,101856.69
2023-01-20T23:20:32.631Z,101845.63
2023-01-20T23:23:02.472Z,101850.44
2023-01-20T23:25:33.134Z,101852.34
2023-01-20T23:28:03.525Z,101854.41
2023-01-20T23:30:33.129Z,101845.81
2023-01-20T23:33:03.463Z,101853.38
2023-01-20T23:35:39.098Z,101847.31
2023-01-20T23:38:09.562Z,101855.06
2023-01-20T23:40:39.617Z,101857.97
2023-01-20T23:43:09.353Z,101849.22
2023-01-20T23:45:39.137Z,101849.16
2023-01-20T23:48:08.909Z,101852.09
2023-01-20T23:50:38.933Z,101859.81
2023-01-20T23:53:07.301Z,101865.09
2023-01-20T23:55:37.847Z,101860.25
2023-01-20T23:58:07.138Z,101859.84
